Time;durP1;ratioP1;P1;durP2;ratioP2;P2;SDS_P1;SDS_P2;PMS_P1;PMS_P2;Temp;Humidity;BMP_temperature;BMP_pressure;BME280_temperature;BME280_humidity;BME280_pressure;Samples;Min_cycle;Max_cycle;Signal;HPM_P1;HPM_P2
2023/10/10 00:00:35;;;;;;;13.90;4.57;;;;;;;;;;5053235;28;20246;-63
2023/10/10 00:03:06;;;;;;;13.50;4.70;;;;;;;;;;5050966;28;20208;-64
2023/10/10 00:05:36;;;;;;;14.00;5.20;;;;;;;;;;5059124;28;20212;-64
2023/10/10 00:08:09;;;;;;;13.93;4.70;;;;;;;;;;5051436;28;20224;-64
2023/10/10 00:10:44;;;;;;;14.70;5.23;;;;;;;;;;5046593;28;20341;-64
2023/10/10 00:13:12;;;;;;;13.80;5.07;;;;;;;;;;5040117;28;20263;-64
2023/10/10 00:15:49;;;;;;;14.77;4.93;;;;;;;;;;5039641;28;20214;-64
2023/10/10 00:18:18;;;;;;;10.13;4.30;;;;;;;;;;5046805;28;20242;-63
2023/10/10 00:21:04;;;;;;;9.83;4.87;;;;;;;;;;5059191;28;20274;-62
2023/10/10 00:23:39;;;;;;;9.97;5.13;;;;;;;;;;5059525;28;20274;-63
2023/10/10 00:26:12;;;;;;;13.10;5.00;;;;;;;;;;5055145;28;20315;-63
2023/10/10 00:28:42;;;;;;;11.33;5.13;;;;;;;;;;5039389;28;20216;-63
2023/10/10 00:31:12;;;;;;;16.37;4.73;;;;;;;;;;5039616;28;20289;-64
2023/10/10 00:33:41;;;;;;;11.87;4.20;;;;;;;;;;5039297;28;20571;-64
2023/10/10 00:36:12;;;;;;;11.17;4.40;;;;;;;;;;5045841;28;20216;-64
2023/10/10 00:38:42;;;;;;;18.37;5.47;;;;;;;;;;5058912;28;20307;-62
2023/10/10 00:41:10;;;;;;;10.10;4.50;;;;;;;;;;5050869;28;20228;-63
2023/10/10 00:43:38;;;;;;;13.20;4.83;;;;;;;;;;5041338;28;20297;-63
2023/10/10 00:46:07;;;;;;;9.77;4.53;;;;;;;;;;5040860;28;20314;-63
2023/10/10 00:48:38;;;;;;;11.53;5.17;;;;;;;;;;5046374;28;20201;-63
2023/10/10 00:51:10;;;;;;;15.23;5.10;;;;;;;;;;5049230;28;20250;-62
2023/10/10 00:53:40;;;;;;;12.63;4.90;;;;;;;;;;5058099;28;20297;-63
2023/10/10 00:56:13;;;;;;;11.07;4.87;;;;;;;;;;5057552;28;20205;-63
2023/10/10 00:58:42;;;;;;;14.10;5.33;;;;;;;;;;5053877;28;20203;-62
2023/10/10 01:01:14;;;;;;;11.90;4.47;;;;;;;;;;5046181;28;20645;-62
2023/10/10 01:03:49;;;;;;;9.87;4.90;;;;;;;;;;5054999;28;20696;-62
2023/10/10 01:06:24;;;;;;;11.70;4.50;;;;;;;;;;5058179;28;20211;-62
2023/10/10 01:08:55;;;;;;;12.73;5.17;;;;;;;;;;5051246;28;20261;-63
2023/10/10 01:11:24;;;;;;;9.60;4.77;;;;;;;;;;5051637;28;20277;-63
2023/10/10 01:13:53;;;;;;;10.47;4.90;;;;;;;;;;5057085;28;20234;-62
2023/10/10 01:16:24;;;;;;;11.33;4.73;;;;;;;;;;5055535;28;20208;-63
2023/10/10 01:18:57;;;;;;;17.83;5.40;;;;;;;;;;5044964;28;20286;-63
2023/10/10 01:21:32;;;;;;;9.80;4.30;;;;;;;;;;5057409;28;20223;-62
2023/10/10 01:24:08;;;;;;;10.70;4.37;;;;;;;;;;5048618;28;20207;-62
2023/10/10 01:26:38;;;;;;;12.43;5.33;;;;;;;;;;5050740;28;20230;-63
2023/10/10 01:29:21;;;;;;;9.80;5.23;;;;;;;;;;5052169;28;20199;-63
2023/10/10 01:31:51;;;;;;;14.27;5.93;;;;;;;;;;5056883;28;20218;-62
2023/10/10 01:34:39;;;;;;;11.37;4.90;;;;;;;;;;5058029;28;20309;-62
2023/10/10 01:37:14;;;;;;;10.13;4.40;;;;;;;;;;5057040;28;20237;-63
2023/10/10 01:39:51;;;;;;;9.27;4.80;;;;;;;;;;5056974;28;20202;-62
2023/10/10 01:42:30;;;;;;;14.17;4.80;;;;;;;;;;5041353;28;20273;-63
2023/10/10 01:45:02;;;;;;;10.40;4.80;;;;;;;;;;5049152;28;20206;-62
2023/10/10 01:47:34;;;;;;;12.07;4.40;;;;;;;;;;5046344;28;20207;-63
2023/10/10 01:50:07;;;;;;;9.60;4.67;;;;;;;;;;5047856;28;20297;-63
2023/10/10 01:52:43;;;;;;;10.97;5.03;;;;;;;;;;5047830;28;20205;-63
2023/10/10 01:55:16;;;;;;;12.57;4.43;;;;;;;;;;5046424;28;20195;-62
2023/10/10 01:57:44;;;;;;;7.00;4.50;;;;;;;;;;5046568;28;20203;-63
2023/10/10 02:00:20;;;;;;;13.23;5.03;;;;;;;;;;5048553;28;20226;-63
2023/10/10 02:02:50;;;;;;;13.90;5.47;;;;;;;;;;5045734;28;20235;-63
2023/10/10 02:05:40;;;;;;;10.80;4.30;;;;;;;;;;5045670;28;20253;-63
2023/10/10 02:08:16;;;;;;;15.00;4.77;;;;;;;;;;5049194;28;20290;-63
2023/10/10 02:10:46;;;;;;;12.83;4.80;;;;;;;;;;5045528;28;20226;-64
2023/10/10 02:13:14;;;;;;;8.70;4.53;;;;;;;;;;5046644;28;20261;-62
2023/10/10 02:15:42;;;;;;;12.50;5.50;;;;;;;;;;5047360;28;20249;-62
2023/10/10 02:18:13;;;;;;;13.23;4.67;;;;;;;;;;5046669;28;20614;-63
2023/10/10 02:20:52;;;;;;;12.27;4.67;;;;;;;;;;5048046;28;20740;-65
2023/10/10 02:23:31;;;;;;;13.77;5.43;;;;;;;;;;5045433;28;20201;-62
2023/10/10 02:26:07;;;;;;;11.83;4.87;;;;;;;;;;5049849;28;20234;-63
2023/10/10 02:28:47;;;;;;;11.97;5.20;;;;;;;;;;5050590;28;20199;-64
2023/10/10 02:31:16;;;;;;;14.07;5.97;;;;;;;;;;5050469;28;20227;-64
2023/10/10 02:34:02;;;;;;;9.37;4.50;;;;;;;;;;5049808;28;20720;-64
2023/10/10 02:36:34;;;;;;;11.83;4.83;;;;;;;;;;5050736;28;20199;-62
2023/10/10 02:39:27;;;;;;;10.00;4.20;;;;;;;;;;5047643;28;20290;-64
2023/10/10 02:41:59;;;;;;;13.53;4.10;;;;;;;;;;5052450;28;20705;-64
2023/10/10 02:44:38;;;;;;;12.87;4.60;;;;;;;;;;5049841;28;20274;-62
2023/10/10 02:47:08;;;;;;;9.30;4.43;;;;;;;;;;5052996;28;20203;-63
2023/10/10 02:49:38;;;;;;;13.73;4.50;;;;;;;;;;5052382;28;20196;-63
2023/10/10 02:52:08;;;;;;;10.17;4.60;;;;;;;;;;5049249;28;20287;-63
2023/10/10 02:54:44;;;;;;;10.17;4.37;;;;;;;;;;5045294;28;20210;-63
2023/10/10 02:57:31;;;;;;;8.23;3.97;;;;;;;;;;5050775;28;20658;-62
2023/10/10 03:02:49;;;;;;;10.57;5.03;;;;;;;;;;5047937;28;20233;-63
2023/10/10 03:05:37;;;;;;;7.93;4.07;;;;;;;;;;5058948;28;20638;-63
2023/10/10 03:08:13;;;;;;;13.67;4.80;;;;;;;;;;5040542;28;20203;-63
2023/10/10 03:10:46;;;;;;;14.00;4.47;;;;;;;;;;5048652;28;20233;-63
2023/10/10 03:13:27;;;;;;;7.10;4.13;;;;;;;;;;5046298;28;20203;-62
2023/10/10 03:15:56;;;;;;;10.40;4.20;;;;;;;;;;5041192;28;20215;-63
2023/10/10 03:18:30;;;;;;;10.03;4.67;;;;;;;;;;5057805;28;20286;-63
2023/10/10 03:21:12;;;;;;;8.40;4.50;;;;;;;;;;5059577;28;20265;-64
2023/10/10 03:24:06;;;;;;;7.67;5.23;;;;;;;;;;5046505;28;20210;-63
2023/10/10 03:29:27;;;;;;;12.30;4.57;;;;;;;;;;5053640;28;20210;-63
2023/10/10 03:32:21;;;;;;;13.27;4.67;;;;;;;;;;5049380;28;20777;-63
2023/10/10 03:34:56;;;;;;;8.97;4.73;;;;;;;;;;5059568;28;20214;-63
2023/10/10 03:37:30;;;;;;;9.93;4.97;;;;;;;;;;5059442;28;20226;-63
2023/10/10 03:40:10;;;;;;;8.57;4.03;;;;;;;;;;5058801;28;20199;-64
2023/10/10 05:25:22;;;;;;;14.17;5.57;;;;;;;;;;5048513;28;20203;-64
2023/10/10 05:27:52;;;;;;;10.50;5.17;;;;;;;;;;5046467;28;20589;-64
2023/10/10 05:30:24;;;;;;;13.50;5.10;;;;;;;;;;5047921;28;20227;-64
2023/10/10 05:33:00;;;;;;;9.40;5.23;;;;;;;;;;5044968;28;20271;-64
2023/10/10 05:35:29;;;;;;;11.63;4.60;;;;;;;;;;5046627;28;20230;-64
2023/10/10 05:38:00;;;;;;;13.63;5.43;;;;;;;;;;5045996;28;20258;-64
2023/10/10 05:40:33;;;;;;;19.20;6.40;;;;;;;;;;5045565;28;20277;-64
2023/10/10 05:43:02;;;;;;;14.27;5.30;;;;;;;;;;5047501;28;20227;-64
2023/10/10 05:45:31;;;;;;;16.47;5.40;;;;;;;;;;5050260;28;20195;-64
2023/10/10 05:47:59;;;;;;;13.17;5.23;;;;;;;;;;5045285;28;20237;-64
2023/10/10 05:50:27;;;;;;;13.17;6.30;;;;;;;;;;5045158;28;20650;-64
2023/10/10 05:52:55;;;;;;;10.47;5.60;;;;;;;;;;5046867;28;20234;-71
2023/10/10 05:55:25;;;;;;;11.33;5.17;;;;;;;;;;5044969;28;20686;-64
2023/10/10 05:57:55;;;;;;;11.93;5.10;;;;;;;;;;5045324;28;20204;-64
2023/10/10 06:00:27;;;;;;;15.97;7.93;;;;;;;;;;5045965;28;20687;-64
2023/10/10 06:02:55;;;;;;;12.00;5.37;;;;;;;;;;5048043;28;20219;-64
2023/10/10 06:05:23;;;;;;;12.20;6.30;;;;;;;;;;5056377;28;20199;-64
2023/10/10 06:07:51;;;;;;;14.57;6.27;;;;;;;;;;5052086;28;20261;-64
2023/10/10 06:10:19;;;;;;;12.50;4.97;;;;;;;;;;5050553;28;20223;-64
2023/10/10 06:12:49;;;;;;;13.87;5.57;;;;;;;;;;5056857;28;20266;-64
2023/10/10 06:15:18;;;;;;;10.27;4.87;;;;;;;;;;5037410;28;20294;-62
2023/10/10 06:17:48;;;;;;;10.57;5.07;;;;;;;;;;5037477;28;20207;-63
2023/10/10 06:20:21;;;;;;;14.60;5.67;;;;;;;;;;5037775;28;20258;-64
2023/10/10 06:22:49;;;;;;;13.27;5.50;;;;;;;;;;5049869;28;20222;-64
2023/10/10 06:25:18;;;;;;;11.30;4.83;;;;;;;;;;5047330;28;20207;-63
2023/10/10 06:27:46;;;;;;;9.53;4.53;;;;;;;;;;5045704;28;20208;-63
2023/10/10 06:30:18;;;;;;;12.57;5.37;;;;;;;;;;5046479;28;20288;-64
2023/10/10 06:32:47;;;;;;;11.97;5.57;;;;;;;;;;5046430;28;20257;-63
2023/10/10 06:35:27;;;;;;;14.30;5.70;;;;;;;;;;5046466;28;20209;-64
2023/10/10 06:37:58;;;;;;;13.50;6.10;;;;;;;;;;5047748;28;20225;-64
2023/10/10 06:40:28;;;;;;;12.00;5.63;;;;;;;;;;5050657;28;20346;-64
2023/10/10 06:42:56;;;;;;;13.93;5.03;;;;;;;;;;5046350;28;20215;-64
2023/10/10 06:45:36;;;;;;;16.57;7.27;;;;;;;;;;5047593;28;20252;-64
2023/10/10 06:48:05;;;;;;;12.17;5.23;;;;;;;;;;5049133;28;20232;-62
2023/10/10 06:50:38;;;;;;;12.57;5.40;;;;;;;;;;5057004;28;20223;-64
2023/10/10 06:53:13;;;;;;;12.27;5.13;;;;;;;;;;5057174;28;20195;-64
2023/10/10 06:55:45;;;;;;;17.93;5.37;;;;;;;;;;5040805;28;20218;-65
2023/10/10 06:58:14;;;;;;;15.07;5.97;;;;;;;;;;5037246;28;20211;-64
2023/10/10 07:00:44;;;;;;;10.67;4.67;;;;;;;;;;5045598;28;20232;-64
2023/10/10 07:03:18;;;;;;;14.60;5.77;;;;;;;;;;5039562;28;20233;-64
2023/10/10 07:05:48;;;;;;;19.73;6.83;;;;;;;;;;5043995;28;20219;-64
2023/10/10 07:08:25;;;;;;;12.07;5.93;;;;;;;;;;5057137;28;20270;-63
2023/10/10 07:10:54;;;;;;;14.67;6.67;;;;;;;;;;5056862;28;20391;-64
2023/10/10 07:13:29;;;;;;;10.57;5.33;;;;;;;;;;5055440;28;20286;-64
2023/10/10 07:15:59;;;;;;;13.13;5.33;;;;;;;;;;5047492;28;20260;-63
2023/10/10 07:18:32;;;;;;;16.87;6.10;;;;;;;;;;5052619;28;20199;-63
2023/10/10 07:21:30;;;;;;;9.20;5.77;;;;;;;;;;5041198;28;20223;-63
2023/10/10 07:24:13;;;;;;;15.77;5.87;;;;;;;;;;5046039;28;20218;-64
2023/10/10 07:26:42;;;;;;;16.43;6.73;;;;;;;;;;5051416;28;20210;-64
2023/10/10 07:29:27;;;;;;;15.37;6.63;;;;;;;;;;5052263;28;20201;-62
2023/10/10 07:32:04;;;;;;;24.83;7.97;;;;;;;;;;5058078;28;20632;-62
2023/10/10 07:34:38;;;;;;;19.27;6.23;;;;;;;;;;5043301;28;20206;-62
2023/10/10 07:37:09;;;;;;;14.93;6.63;;;;;;;;;;5059558;28;20562;-62
2023/10/10 07:39:36;;;;;;;14.60;7.20;;;;;;;;;;5056229;28;20203;-62
2023/10/10 07:42:09;;;;;;;18.90;6.73;;;;;;;;;;5052064;28;20254;-64
2023/10/10 07:44:37;;;;;;;17.03;6.73;;;;;;;;;;5049147;28;20218;-64
2023/10/10 07:47:25;;;;;;;17.03;7.40;;;;;;;;;;5052635;28;20685;-64
2023/10/10 07:49:54;;;;;;;15.77;7.10;;;;;;;;;;5051115;28;20209;-63
2023/10/10 07:52:22;;;;;;;19.37;7.87;;;;;;;;;;5040316;28;20246;-63
2023/10/10 07:54:53;;;;;;;21.57;8.00;;;;;;;;;;5055417;28;20706;-63
2023/10/10 07:57:28;;;;;;;19.67;8.33;;;;;;;;;;5060006;28;20233;-63
2023/10/10 07:59:57;;;;;;;13.50;7.80;;;;;;;;;;5055295;28;20635;-63
2023/10/10 08:02:31;;;;;;;18.80;7.40;;;;;;;;;;5052090;28;20572;-63
2023/10/10 08:05:09;;;;;;;19.80;7.33;;;;;;;;;;5053036;28;20218;-64
2023/10/10 08:07:38;;;;;;;17.17;7.40;;;;;;;;;;5040112;28;20207;-64
2023/10/10 08:10:29;;;;;;;17.20;7.47;;;;;;;;;;5039353;28;20310;-65
2023/10/10 08:12:58;;;;;;;17.53;7.47;;;;;;;;;;5039900;28;20239;-64
2023/10/10 08:15:26;;;;;;;20.87;9.10;;;;;;;;;;5039917;28;20286;-65
2023/10/10 08:17:58;;;;;;;14.20;7.67;;;;;;;;;;5039558;28;20742;-64
2023/10/10 08:21:08;;;;;;;20.53;7.57;;;;;;;;;;5039313;28;20687;-64
2023/10/10 08:23:26;;;;;;;19.60;7.60;;;;;;;;;;5041426;28;20239;-64
2023/10/10 08:25:54;;;;;;;15.27;7.60;;;;;;;;;;5044794;28;20273;-63
2023/10/10 08:28:22;;;;;;;21.23;8.03;;;;;;;;;;5039674;28;20294;-63
2023/10/10 08:30:50;;;;;;;15.07;7.57;;;;;;;;;;5041702;28;20224;-61
2023/10/10 08:33:20;;;;;;;18.10;8.20;;;;;;;;;;5049320;28;20207;-61
2023/10/10 08:35:48;;;;;;;17.53;8.53;;;;;;;;;;5048601;28;20242;-61
2023/10/10 08:38:20;;;;;;;24.17;8.33;;;;;;;;;;5058588;28;20265;-61
2023/10/10 08:40:57;;;;;;;21.33;8.37;;;;;;;;;;5056342;28;20227;-61
2023/10/10 08:43:28;;;;;;;16.90;7.90;;;;;;;;;;5048978;28;20578;-61
2023/10/10 08:45:57;;;;;;;17.73;8.67;;;;;;;;;;5058864;28;20290;-61
2023/10/10 08:48:27;;;;;;;21.37;8.23;;;;;;;;;;5056036;28;20238;-61
2023/10/10 08:51:03;;;;;;;18.23;8.77;;;;;;;;;;5046070;28;20223;-62
2023/10/10 08:53:35;;;;;;;15.73;8.57;;;;;;;;;;5038466;28;20298;-62
2023/10/10 08:56:03;;;;;;;22.33;7.63;;;;;;;;;;5043415;28;20294;-62
2023/10/10 08:58:33;;;;;;;20.30;8.90;;;;;;;;;;5038606;28;20634;-62
2023/10/10 09:01:01;;;;;;;31.47;8.53;;;;;;;;;;5046293;28;20318;-63
2023/10/10 09:03:34;;;;;;;19.93;8.53;;;;;;;;;;5038617;28;20207;-63
2023/10/10 09:06:16;;;;;;;18.93;7.43;;;;;;;;;;5038191;28;20212;-63
2023/10/10 09:08:49;;;;;;;19.33;7.60;;;;;;;;;;5038224;28;20294;-63
2023/10/10 09:11:20;;;;;;;23.20;7.70;;;;;;;;;;5038176;28;20248;-63
2023/10/10 09:13:51;;;;;;;17.23;7.07;;;;;;;;;;5054675;28;20572;-62
2023/10/10 09:16:23;;;;;;;14.20;6.30;;;;;;;;;;5044011;28;20297;-62
2023/10/10 09:19:10;;;;;;;16.57;6.23;;;;;;;;;;5038540;28;20275;-62
2023/10/10 09:21:55;;;;;;;15.17;6.40;;;;;;;;;;5038254;28;20295;-62
2023/10/10 09:24:28;;;;;;;18.67;6.27;;;;;;;;;;5048403;28;20222;-63
2023/10/10 09:26:58;;;;;;;18.10;7.37;;;;;;;;;;5058555;28;20210;-61
2023/10/10 09:29:32;;;;;;;24.37;7.40;;;;;;;;;;5058202;28;20209;-62
2023/10/10 09:32:01;;;;;;;19.27;7.63;;;;;;;;;;5055228;28;20218;-61
2023/10/10 09:34:40;;;;;;;19.63;7.33;;;;;;;;;;5050167;28;20656;-62
2023/10/10 09:37:13;;;;;;;75.90;35.83;;;;;;;;;;5056555;28;20198;-63
2023/10/10 09:39:43;;;;;;;62.20;27.00;;;;;;;;;;5046726;28;20249;-62
2023/10/10 09:42:28;;;;;;;32.10;13.00;;;;;;;;;;5049116;28;20198;-62
2023/10/10 09:47:43;;;;;;;251.37;147.77;;;;;;;;;;5040856;28;20203;-64
2023/10/10 09:53:20;;;;;;;71.20;36.13;;;;;;;;;;5055687;28;20208;-64
2023/10/10 09:55:53;;;;;;;35.27;12.47;;;;;;;;;;5055629;28;20209;-66
2023/10/10 09:58:27;;;;;;;20.07;7.60;;;;;;;;;;5054026;28;20211;-66
2023/10/10 10:01:04;;;;;;;18.80;7.20;;;;;;;;;;5051056;28;20235;-65
2023/10/10 10:03:42;;;;;;;20.30;7.03;;;;;;;;;;5045646;28;20703;-66
2023/10/10 10:09:32;;;;;;;19.43;6.70;;;;;;;;;;5156780;27;20945;-65
2023/10/10 10:12:08;;;;;;;23.43;6.77;;;;;;;;;;5139931;27;20230;-65
2023/10/10 10:14:46;;;;;;;12.47;5.90;;;;;;;;;;5114921;28;20205;-65
2023/10/10 10:17:20;;;;;;;15.70;6.13;;;;;;;;;;5115584;28;20236;-66
2023/10/10 10:19:48;;;;;;;17.50;6.67;;;;;;;;;;5115233;28;20211;-62
2023/10/10 10:22:18;;;;;;;19.10;5.57;;;;;;;;;;5115355;28;20739;-63
2023/10/10 10:25:20;;;;;;;24.77;8.17;;;;;;;;;;5115504;28;20210;-63
2023/10/10 10:27:49;;;;;;;81.87;45.73;;;;;;;;;;5115036;28;20271;-64
2023/10/10 10:30:38;;;;;;;34.77;16.10;;;;;;;;;;5114950;28;20593;-63
2023/10/10 10:33:09;;;;;;;23.20;7.97;;;;;;;;;;5115469;28;20214;-64
2023/10/10 10:35:57;;;;;;;23.80;7.00;;;;;;;;;;5125420;27;20203;-65
2023/10/10 10:38:26;;;;;;;22.53;6.80;;;;;;;;;;5120456;27;20236;-64
2023/10/10 10:41:07;;;;;;;23.40;6.63;;;;;;;;;;5116362;28;20319;-63
2023/10/10 10:43:38;;;;;;;18.93;6.27;;;;;;;;;;5114436;28;20196;-62
2023/10/10 10:46:14;;;;;;;22.30;6.83;;;;;;;;;;5113794;28;20629;-63
2023/10/10 10:48:48;;;;;;;14.70;6.17;;;;;;;;;;5111162;28;20274;-64
2023/10/10 10:54:02;;;;;;;18.37;5.60;;;;;;;;;;5117215;28;20203;-64
2023/10/10 10:56:40;;;;;;;16.27;6.37;;;;;;;;;;5123861;27;20659;-64
2023/10/10 10:59:12;;;;;;;16.70;5.63;;;;;;;;;;5116237;28;20210;-63
2023/10/10 11:01:51;;;;;;;16.40;5.60;;;;;;;;;;5119481;27;20314;-63
2023/10/10 11:04:42;;;;;;;13.87;5.33;;;;;;;;;;5114768;28;20212;-63
2023/10/10 11:07:16;;;;;;;12.80;5.47;;;;;;;;;;5131433;28;20687;-64
2023/10/10 11:09:52;;;;;;;10.97;5.20;;;;;;;;;;5113865;27;20269;-64
2023/10/10 11:12:31;;;;;;;16.10;5.90;;;;;;;;;;5128595;28;20577;-64
2023/10/10 11:15:05;;;;;;;16.13;5.63;;;;;;;;;;5134602;27;20240;-64
2023/10/10 11:17:38;;;;;;;14.87;5.23;;;;;;;;;;5118798;27;20244;-64
2023/10/10 11:20:26;;;;;;;18.67;5.47;;;;;;;;;;5107168;27;20252;-64
2023/10/10 11:22:56;;;;;;;13.80;5.53;;;;;;;;;;5104483;27;20587;-63
2023/10/10 11:25:41;;;;;;;13.57;4.97;;;;;;;;;;5103850;28;20198;-64
2023/10/10 11:28:21;;;;;;;15.27;5.13;;;;;;;;;;5104321;28;20315;-64
2023/10/10 11:30:51;;;;;;;15.00;5.70;;;;;;;;;;5114776;28;20298;-64
2023/10/10 11:33:38;;;;;;;19.17;5.90;;;;;;;;;;5099857;28;20292;-64
2023/10/10 11:36:37;;;;;;;16.10;6.33;;;;;;;;;;5100145;28;20297;-64
2023/10/10 11:39:25;;;;;;;15.53;5.70;;;;;;;;;;5100346;28;20240;-64
2023/10/10 11:41:53;;;;;;;17.23;5.93;;;;;;;;;;5108515;28;20230;-64
2023/10/10 11:44:23;;;;;;;18.37;7.30;;;;;;;;;;5100320;28;20202;-64
2023/10/10 11:47:02;;;;;;;20.30;5.70;;;;;;;;;;5118625;28;20545;-65
2023/10/10 11:49:32;;;;;;;12.33;5.03;;;;;;;;;;5120806;28;20227;-64
2023/10/10 11:52:00;;;;;;;13.43;4.97;;;;;;;;;;5118522;28;20250;-64
2023/10/10 11:54:29;;;;;;;17.97;4.67;;;;;;;;;;5099244;28;20228;-64
2023/10/10 11:56:59;;;;;;;13.33;4.37;;;;;;;;;;5100080;28;20208;-64
2023/10/10 11:59:32;;;;;;;11.30;5.03;;;;;;;;;;5107202;28;20559;-64
2023/10/10 12:02:08;;;;;;;17.30;4.60;;;;;;;;;;5104902;28;20228;-64
2023/10/10 12:04:38;;;;;;;11.90;4.73;;;;;;;;;;5110208;28;20268;-64
2023/10/10 12:07:05;;;;;;;14.93;3.83;;;;;;;;;;5099698;28;20205;-64
2023/10/10 12:09:34;;;;;;;14.03;4.10;;;;;;;;;;5101447;27;20773;-64
2023/10/10 12:12:03;;;;;;;9.93;4.27;;;;;;;;;;5119451;27;20232;-63
2023/10/10 12:14:33;;;;;;;8.23;4.00;;;;;;;;;;5099715;28;20204;-64
2023/10/10 12:17:05;;;;;;;14.87;4.97;;;;;;;;;;5103459;28;20211;-64
2023/10/10 12:19:37;;;;;;;25.03;6.13;;;;;;;;;;5107178;28;20250;-64
2023/10/10 12:22:10;;;;;;;13.63;5.00;;;;;;;;;;5120048;28;20291;-64
2023/10/10 12:24:39;;;;;;;11.37;5.60;;;;;;;;;;5119968;28;20200;-64
2023/10/10 12:27:08;;;;;;;13.73;6.57;;;;;;;;;;5119273;28;20200;-64
2023/10/10 12:29:40;;;;;;;16.57;5.70;;;;;;;;;;5100807;28;20235;-64
2023/10/10 12:32:22;;;;;;;13.23;4.50;;;;;;;;;;5097689;28;20202;-64
2023/10/10 12:34:50;;;;;;;7.23;3.97;;;;;;;;;;5099164;28;20205;-64
2023/10/10 12:37:23;;;;;;;6.93;3.70;;;;;;;;;;5099418;28;20209;-64
2023/10/10 12:39:52;;;;;;;7.00;3.23;;;;;;;;;;5100567;28;20251;-64
2023/10/10 12:42:20;;;;;;;11.90;3.93;;;;;;;;;;5117523;28;20196;-64
2023/10/10 12:44:49;;;;;;;9.07;3.80;;;;;;;;;;5118390;28;20204;-64
2023/10/10 12:47:19;;;;;;;9.03;3.83;;;;;;;;;;5109313;28;20204;-64
2023/10/10 12:49:47;;;;;;;11.80;4.53;;;;;;;;;;5118203;28;20232;-64
2023/10/10 12:52:17;;;;;;;8.07;3.50;;;;;;;;;;5116476;28;20201;-64
2023/10/10 12:54:46;;;;;;;13.87;4.03;;;;;;;;;;5100481;28;20576;-64
2023/10/10 12:57:14;;;;;;;11.90;3.37;;;;;;;;;;5101024;28;20197;-64
2023/10/10 12:59:46;;;;;;;10.90;3.87;;;;;;;;;;5113662;28;20623;-64
2023/10/10 13:02:16;;;;;;;13.17;3.83;;;;;;;;;;5114075;28;20565;-64
2023/10/10 13:04:48;;;;;;;9.73;3.53;;;;;;;;;;5098564;28;20217;-64
2023/10/10 13:07:18;;;;;;;12.40;3.53;;;;;;;;;;5100019;28;20316;-64
2023/10/10 13:09:46;;;;;;;7.10;3.27;;;;;;;;;;5098299;28;20222;-64
2023/10/10 13:12:32;;;;;;;14.07;4.13;;;;;;;;;;5106609;28;20205;-64
2023/10/10 13:15:17;;;;;;;12.27;3.63;;;;;;;;;;5117839;28;20781;-64
2023/10/10 13:18:11;;;;;;;10.43;4.17;;;;;;;;;;5110512;28;20234;-64
2023/10/10 13:20:40;;;;;;;10.37;3.60;;;;;;;;;;5116359;28;20304;-64
2023/10/10 13:23:09;;;;;;;9.47;3.87;;;;;;;;;;5113098;28;20198;-64
2023/10/10 13:25:38;;;;;;;8.83;3.60;;;;;;;;;;5099311;28;20199;-64
2023/10/10 13:28:09;;;;;;;9.20;3.30;;;;;;;;;;5108759;28;20676;-64
2023/10/10 13:30:38;;;;;;;8.33;3.70;;;;;;;;;;5113447;28;20261;-64
2023/10/10 13:33:08;;;;;;;12.63;3.60;;;;;;;;;;5113820;28;20669;-64
2023/10/10 13:35:37;;;;;;;8.87;4.03;;;;;;;;;;5097893;28;20641;-63
2023/10/10 13:38:06;;;;;;;10.03;4.50;;;;;;;;;;5108705;28;20681;-64
2023/10/10 13:40:37;;;;;;;11.37;3.47;;;;;;;;;;5118565;28;20279;-64
2023/10/10 13:43:08;;;;;;;9.60;3.60;;;;;;;;;;5108605;28;20200;-64
2023/10/10 13:45:37;;;;;;;8.93;4.27;;;;;;;;;;5113175;28;20204;-64
2023/10/10 13:48:13;;;;;;;8.10;3.87;;;;;;;;;;5097557;28;20252;-64
2023/10/10 13:50:45;;;;;;;11.73;3.20;;;;;;;;;;5106585;28;20220;-64
2023/10/10 13:53:13;;;;;;;9.33;3.50;;;;;;;;;;5102879;28;20226;-64
2023/10/10 13:55:42;;;;;;;7.93;3.77;;;;;;;;;;5115116;28;20237;-64
2023/10/10 13:58:12;;;;;;;10.27;3.60;;;;;;;;;;5111408;28;20305;-64
2023/10/10 14:00:41;;;;;;;6.83;3.47;;;;;;;;;;5104541;28;20222;-64
2023/10/10 14:03:14;;;;;;;8.17;3.60;;;;;;;;;;5113908;28;20206;-64
2023/10/10 14:06:00;;;;;;;7.47;3.23;;;;;;;;;;5097690;28;20203;-64
2023/10/10 14:08:30;;;;;;;8.03;3.87;;;;;;;;;;5100669;28;20764;-64
2023/10/10 14:10:59;;;;;;;11.67;5.70;;;;;;;;;;5115358;28;20230;-64
2023/10/10 14:13:27;;;;;;;11.10;3.67;;;;;;;;;;5113747;28;20290;-64
2023/10/10 14:15:56;;;;;;;7.67;3.10;;;;;;;;;;5097470;28;20212;-64
2023/10/10 14:18:30;;;;;;;10.47;3.63;;;;;;;;;;5103834;28;20211;-64
2023/10/10 14:21:01;;;;;;;12.30;4.00;;;;;;;;;;5117585;28;20222;-64
2023/10/10 14:23:29;;;;;;;13.30;3.90;;;;;;;;;;5118031;28;20243;-64
2023/10/10 14:26:12;;;;;;;9.47;3.30;;;;;;;;;;5111185;28;20204;-64
2023/10/10 14:28:41;;;;;;;10.20;3.20;;;;;;;;;;5097419;28;20211;-64
2023/10/10 14:31:12;;;;;;;7.20;3.40;;;;;;;;;;5101417;28;20277;-64
2023/10/10 14:33:42;;;;;;;15.43;4.27;;;;;;;;;;5097396;28;20283;-64
2023/10/10 14:36:12;;;;;;;16.67;4.13;;;;;;;;;;5109736;28;20208;-64
2023/10/10 14:38:44;;;;;;;7.37;2.77;;;;;;;;;;5117908;28;20204;-64
2023/10/10 14:41:16;;;;;;;13.80;3.90;;;;;;;;;;5116406;28;20311;-64
2023/10/10 14:43:47;;;;;;;7.70;3.67;;;;;;;;;;5097594;28;20204;-63
2023/10/10 14:46:21;;;;;;;7.67;3.47;;;;;;;;;;5096921;28;20205;-64
2023/10/10 14:49:00;;;;;;;10.10;3.20;;;;;;;;;;5096892;28;20259;-64
2023/10/10 14:51:33;;;;;;;12.13;4.07;;;;;;;;;;5108759;28;20315;-64
2023/10/10 14:54:07;;;;;;;11.23;3.17;;;;;;;;;;5105559;28;20234;-64
2023/10/10 14:56:35;;;;;;;12.07;3.73;;;;;;;;;;5117005;28;20204;-64
2023/10/10 14:59:05;;;;;;;12.97;3.93;;;;;;;;;;5103753;28;20197;-64
2023/10/10 15:01:35;;;;;;;9.47;3.67;;;;;;;;;;5111398;28;20617;-64
2023/10/10 15:04:05;;;;;;;10.50;3.43;;;;;;;;;;5109854;27;20230;-64
2023/10/10 15:06:34;;;;;;;7.03;3.13;;;;;;;;;;5112611;28;20675;-63
2023/10/10 15:09:02;;;;;;;13.90;3.10;;;;;;;;;;5098936;28;20232;-64
2023/10/10 15:11:30;;;;;;;9.80;3.57;;;;;;;;;;5100710;28;20228;-64
2023/10/10 15:13:59;;;;;;;13.80;3.80;;;;;;;;;;5118239;28;20727;-64
2023/10/10 15:16:34;;;;;;;9.23;4.50;;;;;;;;;;5121167;27;20698;-63
2023/10/10 15:19:06;;;;;;;11.13;3.70;;;;;;;;;;5117638;28;20306;-63
2023/10/10 15:21:34;;;;;;;10.87;3.47;;;;;;;;;;5099723;28;20220;-63
2023/10/10 15:24:03;;;;;;;10.73;4.27;;;;;;;;;;5117623;28;20247;-63
2023/10/10 15:26:34;;;;;;;10.17;3.57;;;;;;;;;;5103137;28;20208;-63
2023/10/10 15:29:03;;;;;;;12.10;3.53;;;;;;;;;;5103267;28;20248;-63
2023/10/10 15:31:32;;;;;;;9.87;2.97;;;;;;;;;;5120563;28;20234;-64
2023/10/10 15:34:00;;;;;;;7.67;3.33;;;;;;;;;;5118544;28;20206;-63
2023/10/10 15:36:30;;;;;;;8.77;3.00;;;;;;;;;;5120500;28;20211;-63
2023/10/10 15:39:03;;;;;;;10.57;4.00;;;;;;;;;;5119749;28;20211;-63
2023/10/10 15:41:32;;;;;;;7.07;3.50;;;;;;;;;;5106977;28;20258;-63
2023/10/10 15:44:02;;;;;;;14.20;4.07;;;;;;;;;;5100296;28;20212;-64
2023/10/10 15:46:32;;;;;;;12.43;4.33;;;;;;;;;;5108032;28;20207;-63
2023/10/10 15:49:00;;;;;;;7.93;3.77;;;;;;;;;;5119672;28;20206;-63
2023/10/10 15:51:34;;;;;;;12.03;3.07;;;;;;;;;;5119026;28;20259;-64
2023/10/10 15:54:02;;;;;;;10.13;4.53;;;;;;;;;;5111471;28;20270;-63
2023/10/10 15:56:31;;;;;;;9.43;3.77;;;;;;;;;;5104632;28;20204;-63
2023/10/10 15:59:00;;;;;;;10.37;2.83;;;;;;;;;;5112721;28;20240;-63
2023/10/10 16:01:30;;;;;;;12.07;3.87;;;;;;;;;;5118346;28;20212;-63
2023/10/10 16:03:59;;;;;;;13.60;3.27;;;;;;;;;;5119130;28;20237;-63
2023/10/10 16:06:33;;;;;;;10.27;3.07;;;;;;;;;;5119749;28;20207;-63
2023/10/10 16:09:11;;;;;;;8.87;3.40;;;;;;;;;;5110720;28;20239;-63
2023/10/10 16:11:40;;;;;;;10.53;3.00;;;;;;;;;;5099802;28;20262;-63
2023/10/10 16:14:11;;;;;;;10.70;3.10;;;;;;;;;;5099759;28;20213;-64
2023/10/10 16:16:43;;;;;;;9.33;4.70;;;;;;;;;;5099891;28;20216;-63
2023/10/10 16:19:13;;;;;;;13.13;3.93;;;;;;;;;;5099490;28;20203;-64
2023/10/10 16:21:44;;;;;;;12.07;3.63;;;;;;;;;;5099313;28;20220;-64
2023/10/10 16:24:14;;;;;;;11.00;3.83;;;;;;;;;;5099374;28;20724;-63
2023/10/10 16:26:42;;;;;;;11.10;4.43;;;;;;;;;;5099474;28;20239;-63
2023/10/10 16:29:11;;;;;;;9.63;3.83;;;;;;;;;;5099481;28;20231;-63
2023/10/10 16:31:43;;;;;;;12.60;5.40;;;;;;;;;;5099082;28;20591;-63
2023/10/10 16:34:12;;;;;;;46.37;24.23;;;;;;;;;;5103663;28;20222;-63
2023/10/10 16:36:40;;;;;;;59.07;34.13;;;;;;;;;;5119572;28;20203;-63
2023/10/10 16:39:11;;;;;;;23.53;12.93;;;;;;;;;;5118582;28;20261;-63
2023/10/10 16:41:39;;;;;;;18.63;8.20;;;;;;;;;;5113363;28;20243;-63
2023/10/10 16:44:11;;;;;;;23.60;9.17;;;;;;;;;;5098356;28;20209;-63
2023/10/10 16:46:39;;;;;;;22.00;9.70;;;;;;;;;;5099743;28;20208;-63
2023/10/10 16:49:09;;;;;;;19.63;9.43;;;;;;;;;;5098998;28;20569;-63
2023/10/10 16:51:37;;;;;;;18.57;7.43;;;;;;;;;;5098695;28;20267;-63
2023/10/10 16:54:06;;;;;;;36.27;19.30;;;;;;;;;;5114330;28;20291;-64
2023/10/10 16:56:35;;;;;;;22.20;9.87;;;;;;;;;;5110091;28;20278;-63
2023/10/10 16:59:04;;;;;;;26.43;10.37;;;;;;;;;;5102158;28;20204;-63
2023/10/10 17:01:32;;;;;;;20.13;7.97;;;;;;;;;;5107883;28;20692;-63
2023/10/10 17:04:00;;;;;;;12.27;5.90;;;;;;;;;;5107110;28;20208;-62